Time;durP1;ratioP1;P1;durP2;ratioP2;P2;SDS_P1;SDS_P2;PMS_P1;PMS_P2;Temp;Humidity;BMP_temperature;BMP_pressure;BME280_temperature;BME280_humidity;BME280_pressure;Samples;Min_cycle;Max_cycle;Signal;HPM_P1;HPM_P2
2022/05/23 00:00:22;;;;;;;6.22;1.33;;;13.90;72.80;;;;;;5027197;28;20370;-45
2022/05/23 00:02:49;;;;;;;4.20;1.10;;;13.90;72.80;;;;;;5025161;28;20029;-46
2022/05/23 00:05:18;;;;;;;4.72;1.40;;;13.90;73.20;;;;;;5029570;28;20030;-45
2022/05/23 00:07:48;;;;;;;3.50;0.70;;;13.80;73.50;;;;;;5043522;28;20033;-45
2022/05/23 00:10:18;;;;;;;4.55;1.15;;;13.80;74.00;;;;;;5030842;28;20060;-44
2022/05/23 00:12:49;;;;;;;5.55;1.25;;;13.70;74.20;;;;;;5026881;28;20037;-44
2022/05/23 00:15:17;;;;;;;5.20;1.52;;;13.60;75.00;;;;;;5030201;28;20036;-46
2022/05/23 00:17:47;;;;;;;2.80;1.20;;;13.60;74.90;;;;;;5030320;28;20022;-46
2022/05/23 00:20:15;;;;;;;3.72;1.20;;;13.50;75.00;;;;;;5029214;28;20025;-45
2022/05/23 00:22:42;;;;;;;5.55;2.00;;;13.40;75.40;;;;;;5028376;28;20025;-45
2022/05/23 00:25:09;;;;;;;4.35;1.80;;;13.40;75.70;;;;;;5027672;28;20493;-44
2022/05/23 00:27:39;;;;;;;4.53;1.42;;;13.40;76.30;;;;;;5028318;28;20453;-45
2022/05/23 00:30:12;;;;;;;6.45;1.75;;;13.40;76.20;;;;;;5045721;28;20044;-45
2022/05/23 00:35:24;;;;;;;5.13;1.83;;;13.30;76.90;;;;;;5030058;28;20358;-45
2022/05/23 00:37:55;;;;;;;6.47;1.58;;;13.20;77.00;;;;;;5040191;28;20418;-47
2022/05/23 00:40:30;;;;;;;4.90;1.83;;;13.30;77.70;;;;;;5038978;28;20109;-48
2022/05/23 00:43:14;;;;;;;4.32;1.48;;;13.20;78.20;;;;;;5047738;28;20335;-45
2022/05/23 00:45:43;;;;;;;7.15;1.75;;;13.30;78.00;;;;;;5047783;28;20047;-46
2022/05/23 00:48:10;;;;;;;4.80;1.50;;;13.20;78.30;;;;;;5048576;28;20365;-46
2022/05/23 00:50:38;;;;;;;3.92;1.63;;;13.20;78.00;;;;;;5049351;28;20021;-46
2022/05/23 00:53:07;;;;;;;5.95;2.30;;;13.20;78.40;;;;;;5047804;28;20028;-47
2022/05/23 00:55:41;;;;;;;5.20;1.38;;;13.20;78.60;;;;;;5033334;28;20121;-46
2022/05/23 00:58:17;;;;;;;5.20;1.52;;;13.10;78.70;;;;;;5042339;28;20112;-45
2022/05/23 01:00:44;;;;;;;4.18;1.95;;;13.00;78.50;;;;;;5040630;28;20025;-44
2022/05/23 01:03:15;;;;;;;3.33;1.35;;;13.00;78.60;;;;;;5043471;28;20538;-46
2022/05/23 01:05:43;;;;;;;6.60;1.88;;;13.00;78.70;;;;;;5047439;28;20029;-44
2022/05/23 01:08:09;;;;;;;4.60;1.67;;;13.00;78.40;;;;;;5048445;28;20369;-48
2022/05/23 01:10:37;;;;;;;8.27;1.85;;;12.90;78.10;;;;;;5031411;28;20034;-46
2022/05/23 01:13:05;;;;;;;5.13;2.03;;;13.00;77.80;;;;;;5047540;28;20915;-45
2022/05/23 01:15:34;;;;;;;4.60;1.60;;;13.00;77.90;;;;;;5047957;28;20040;-45
2022/05/23 01:18:02;;;;;;;;;;;13.00;77.70;;;;;;5038410;28;20033;-45
2022/05/23 01:20:29;;;;;;;7.20;1.92;;;13.00;77.50;;;;;;5042896;28;19936;-45
2022/05/23 01:23:22;;;;;;;3.85;1.60;;;13.00;77.70;;;;;;5046354;28;20033;-45
2022/05/23 01:25:50;;;;;;;5.57;1.70;;;13.00;77.40;;;;;;5048208;28;20331;-45
2022/05/23 01:28:17;;;;;;;4.07;1.58;;;13.00;77.40;;;;;;5028856;28;20029;-47
2022/05/23 01:30:45;;;;;;;6.18;1.80;;;13.00;77.60;;;;;;5028109;28;20026;-45
2022/05/23 01:33:13;;;;;;;9.35;1.90;;;12.90;77.30;;;;;;5031829;28;20021;-45
2022/05/23 01:35:41;;;;;;;3.90;1.45;;;12.90;77.70;;;;;;5053399;28;20033;-48
2022/05/23 01:38:09;;;;;;;7.47;2.05;;;12.90;78.20;;;;;;5045426;28;20434;-44
2022/05/23 01:40:36;;;;;;;7.07;1.67;;;12.90;78.60;;;;;;5050286;28;20056;-44
2022/05/23 01:43:02;;;;;;;3.90;1.88;;;12.80;78.80;;;;;;5034227;28;20589;-44
2022/05/23 01:45:32;;;;;;;5.32;1.80;;;12.70;78.80;;;;;;5047963;28;20040;-45
2022/05/23 01:48:00;;;;;;;3.53;1.55;;;12.70;79.40;;;;;;5032578;28;20017;-44
2022/05/23 01:50:27;;;;;;;4.22;1.85;;;12.60;79.60;;;;;;5053235;28;20087;-48
2022/05/23 01:52:54;;;;;;;6.45;2.10;;;12.60;80.00;;;;;;5051039;28;20532;-45
2022/05/23 01:55:22;;;;;;;6.25;2.40;;;12.60;80.00;;;;;;5051048;28;20043;-49
2022/05/23 01:57:49;;;;;;;4.88;2.22;;;12.60;80.20;;;;;;5028546;28;20040;-44
2022/05/23 02:03:05;;;;;;;6.17;2.00;;;12.40;80.60;;;;;;5034507;28;20359;-45
2022/05/23 02:05:33;;;;;;;7.25;2.15;;;12.50;80.60;;;;;;5052628;28;20037;-48
2022/05/23 02:08:00;;;;;;;4.05;1.63;;;12.40;80.70;;;;;;5047000;28;20062;-45
2022/05/23 02:10:27;;;;;;;3.42;1.73;;;12.50;80.70;;;;;;5049871;28;20448;-45
2022/05/23 02:12:56;;;;;;;8.52;1.88;;;12.50;80.90;;;;;;5043656;28;20033;-44
2022/05/23 02:15:22;;;;;;;4.90;2.05;;;12.40;80.60;;;;;;5050930;28;20086;-44
2022/05/23 02:17:49;;;;;;;7.97;2.22;;;12.40;80.70;;;;;;5051484;28;20048;-45
2022/05/23 02:20:17;;;;;;;6.57;2.63;;;12.40;80.90;;;;;;5048730;28;20442;-48
2022/05/23 02:22:46;;;;;;;5.47;1.98;;;12.40;80.70;;;;;;5031865;28;20083;-43
2022/05/23 02:25:13;;;;;;;7.85;2.42;;;12.30;80.70;;;;;;5012716;28;20095;-45
2022/05/23 02:27:40;;;;;;;7.55;3.35;;;12.30;80.90;;;;;;5027249;28;20033;-46
2022/05/23 02:30:08;;;;;;;5.38;2.08;;;12.20;80.90;;;;;;5041750;28;20033;-44
2022/05/23 02:32:35;;;;;;;4.88;1.90;;;12.20;80.90;;;;;;5049704;28;20446;-47
2022/05/23 02:35:02;;;;;;;6.93;1.98;;;12.20;80.70;;;;;;5031351;28;20040;-45
2022/05/23 02:37:28;;;;;;;6.97;2.60;;;12.30;80.70;;;;;;5030816;28;20029;-47
2022/05/23 02:39:55;;;;;;;4.53;2.53;;;12.30;80.60;;;;;;5044299;28;20060;-45
2022/05/23 02:42:22;;;;;;;7.80;2.45;;;12.30;80.60;;;;;;5050821;28;20029;-46
2022/05/23 02:44:51;;;;;;;6.97;2.53;;;12.30;80.40;;;;;;5033708;28;20440;-47
2022/05/23 02:47:17;;;;;;;8.75;2.90;;;12.20;80.40;;;;;;5050077;28;20689;-47
2022/05/23 02:49:43;;;;;;;7.10;2.42;;;12.30;80.50;;;;;;5051019;28;20033;-44
2022/05/23 02:52:09;;;;;;;7.85;3.08;;;12.30;80.30;;;;;;5045532;28;20071;-44
2022/05/23 02:54:36;;;;;;;6.03;3.85;;;12.30;80.30;;;;;;5050053;28;20121;-44
2022/05/23 02:57:05;;;;;;;6.97;2.75;;;12.30;80.30;;;;;;5038352;28;20033;-46
2022/05/23 02:59:32;;;;;;;7.65;3.03;;;12.20;80.50;;;;;;5030949;28;20052;-47
2022/05/23 03:04:51;;;;;;;6.43;2.90;;;12.20;80.40;;;;;;5036961;28;20132;-45
2022/05/23 03:07:20;;;;;;;4.95;2.70;;;12.30;80.40;;;;;;5029038;28;20094;-51
2022/05/23 03:09:47;;;;;;;7.35;3.30;;;12.20;80.40;;;;;;5030551;28;20042;-47
2022/05/23 03:12:14;;;;;;;9.73;3.13;;;12.30;80.40;;;;;;5030731;28;20128;-48
2022/05/23 03:14:41;;;;;;;5.43;2.47;;;12.20;80.60;;;;;;5029381;28;20029;-44
2022/05/23 03:17:08;;;;;;;4.47;2.70;;;12.20;80.60;;;;;;5042107;28;20037;-47
2022/05/23 03:19:39;;;;;;;5.45;2.75;;;12.20;80.60;;;;;;5030481;28;20025;-47
2022/05/23 03:27:41;;;;;;;8.10;3.20;;;12.20;80.70;;;;;;5030006;28;20063;-44
2022/05/23 03:30:11;;;;;;;6.35;2.60;;;12.20;80.80;;;;;;5029659;28;20510;-44
2022/05/23 03:32:39;;;;;;;4.90;2.70;;;12.20;80.60;;;;;;5030170;28;20018;-44
2022/05/23 03:35:10;;;;;;;7.85;2.58;;;12.20;80.70;;;;;;5039788;28;20017;-44
2022/05/23 03:37:36;;;;;;;6.30;2.90;;;12.20;80.70;;;;;;5029716;28;20049;-44
2022/05/23 03:40:07;;;;;;;6.32;3.10;;;12.10;80.70;;;;;;5029493;28;20040;-45
2022/05/23 03:42:34;;;;;;;4.93;2.53;;;12.10;80.90;;;;;;5011103;28;20026;-45
2022/05/23 03:45:00;;;;;;;4.70;2.67;;;12.10;81.00;;;;;;5029274;28;20126;-46
2022/05/23 03:47:25;;;;;;;5.43;2.97;;;12.10;81.00;;;;;;5029884;28;20131;-46
2022/05/23 03:49:51;;;;;;;4.97;2.67;;;12.10;80.90;;;;;;5023368;28;20030;-46
2022/05/23 03:52:17;;;;;;;6.63;2.95;;;12.10;80.60;;;;;;5025604;28;20064;-46
2022/05/23 03:54:42;;;;;;;8.98;2.90;;;12.10;80.50;;;;;;5028493;28;20087;-46
2022/05/23 03:57:08;;;;;;;6.57;2.95;;;12.10;80.40;;;;;;5028908;28;20131;-46
2022/05/23 03:59:34;;;;;;;7.00;2.78;;;12.20;80.30;;;;;;5028834;28;20086;-47
2022/05/23 04:02:00;;;;;;;6.10;2.30;;;12.20;80.00;;;;;;5028090;28;20036;-45
2022/05/23 04:04:30;;;;;;;9.82;2.42;;;12.20;80.20;;;;;;5029724;28;20029;-45
2022/05/23 04:06:59;;;;;;;;;;;12.30;80.10;;;;;;5030035;28;20091;-45
2022/05/23 04:09:26;;;;;;;5.88;2.50;;;12.30;80.50;;;;;;5038049;28;19908;-44
2022/05/23 04:11:51;;;;;;;6.90;3.00;;;12.40;80.40;;;;;;5029667;28;20339;-44
2022/05/23 04:14:17;;;;;;;5.38;2.47;;;12.30;80.00;;;;;;5028263;28;20033;-45
2022/05/23 04:16:47;;;;;;;6.22;3.08;;;12.40;80.00;;;;;;5039224;28;20553;-46
2022/05/23 04:19:12;;;;;;;8.18;2.83;;;12.40;79.90;;;;;;5029556;28;20059;-45
2022/05/23 04:21:43;;;;;;;5.78;2.47;;;12.40;80.10;;;;;;5027989;28;20037;-46
2022/05/23 04:24:10;;;;;;;4.20;2.55;;;12.40;80.10;;;;;;5027687;28;20037;-45
2022/05/23 04:26:36;;;;;;;4.82;2.17;;;12.50;80.20;;;;;;5034894;28;20029;-46
2022/05/23 04:29:06;;;;;;;5.47;2.72;;;12.60;79.90;;;;;;5029153;28;20030;-46
2022/05/23 04:31:34;;;;;;;6.97;2.90;;;12.70;79.30;;;;;;5029602;28;20069;-47
2022/05/23 04:36:44;;;;;;;5.40;2.58;;;12.80;79.30;;;;;;5027965;28;20650;-45
2022/05/23 04:39:09;;;;;;;4.00;2.35;;;12.80;79.00;;;;;;5027995;28;20037;-45
2022/05/23 04:41:35;;;;;;;5.55;2.58;;;12.90;78.80;;;;;;5029471;28;20354;-45
2022/05/23 04:44:01;;;;;;;8.00;2.75;;;12.90;78.40;;;;;;5036369;28;20047;-44
2022/05/23 04:46:27;;;;;;;5.07;2.58;;;12.90;78.50;;;;;;5028903;28;20101;-44
2022/05/23 04:51:39;;;;;;;8.02;3.67;;;13.00;78.40;;;;;;5029881;28;20052;-45
2022/05/23 04:54:05;;;;;;;5.43;3.15;;;13.20;78.20;;;;;;5027807;28;20044;-50
2022/05/23 04:56:31;;;;;;;5.60;3.03;;;13.30;77.90;;;;;;5027461;28;20072;-44
2022/05/23 04:58:57;;;;;;;6.50;3.88;;;13.40;77.90;;;;;;5025330;28;20528;-46
2022/05/23 05:01:22;;;;;;;9.27;3.58;;;13.50;77.10;;;;;;5029969;28;20044;-46
2022/05/23 05:03:49;;;;;;;6.78;3.15;;;13.70;76.70;;;;;;5035642;28;20038;-45
2022/05/23 05:06:15;;;;;;;7.72;3.00;;;13.90;76.10;;;;;;5027760;28;20343;-45
2022/05/23 05:08:41;;;;;;;6.25;2.60;;;14.00;75.60;;;;;;5007037;28;20041;-45
2022/05/23 05:11:06;;;;;;;5.30;3.08;;;14.20;75.20;;;;;;5009563;28;20026;-45
2022/05/23 05:13:35;;;;;;;5.70;3.15;;;14.30;74.80;;;;;;5017798;28;20033;-46
2022/05/23 05:16:02;;;;;;;7.07;2.97;;;14.40;74.50;;;;;;5028263;28;20026;-47
2022/05/23 05:18:28;;;;;;;11.02;3.17;;;14.40;74.50;;;;;;5028417;28;20476;-45
2022/05/23 05:20:54;;;;;;;6.95;3.33;;;14.50;73.80;;;;;;5028868;28;20033;-47
2022/05/23 05:23:20;;;;;;;6.63;3.47;;;14.50;73.70;;;;;;5028299;28;20440;-44
2022/05/23 05:25:46;;;;;;;8.65;2.72;;;14.50;73.10;;;;;;5027086;28;20041;-45
2022/05/23 05:28:12;;;;;;;6.20;3.05;;;14.60;73.20;;;;;;5027242;28;20026;-45
2022/05/23 05:30:44;;;;;;;5.68;3.40;;;14.50;73.80;;;;;;5028903;28;20030;-45
2022/05/23 05:33:19;;;;;;;5.63;2.85;;;14.50;73.70;;;;;;5028484;28;20037;-45
2022/05/23 05:35:51;;;;;;;8.07;3.28;;;14.60;73.50;;;;;;5048591;28;20047;-45
2022/05/23 05:38:22;;;;;;;5.40;2.60;;;14.60;73.00;;;;;;5041737;28;20108;-46
2022/05/23 05:40:53;;;;;;;7.20;3.08;;;14.80;73.20;;;;;;5028001;28;20412;-45
2022/05/23 05:43:26;;;;;;;8.95;2.78;;;15.00;72.80;;;;;;5027295;28;20438;-45
2022/05/23 05:45:58;;;;;;;4.85;2.80;;;15.20;71.70;;;;;;5028846;28;20095;-45
2022/05/23 05:48:25;;;;;;;4.40;2.58;;;15.60;71.10;;;;;;5034450;28;20026;-47
2022/05/23 05:50:51;;;;;;;4.80;2.15;;;15.80;69.20;;;;;;5027960;28;20116;-47
2022/05/23 05:53:25;;;;;;;5.25;2.65;;;16.00;68.80;;;;;;5028269;28;20097;-46
2022/05/23 05:55:50;;;;;;;6.35;2.80;;;16.10;69.10;;;;;;5027929;28;20034;-45
2022/05/23 05:58:17;;;;;;;4.25;2.47;;;16.10;69.40;;;;;;5027219;28;20043;-45
2022/05/23 06:00:43;;;;;;;7.13;2.35;;;16.10;69.20;;;;;;5036211;28;20104;-44
2022/05/23 06:03:11;;;;;;;7.95;3.05;;;16.00;69.10;;;;;;5041645;28;20109;-44
2022/05/23 06:11:23;;;;;;;4.97;2.55;;;15.90;69.20;;;;;;5027780;28;20076;-45
2022/05/23 06:13:49;;;;;;;5.53;2.58;;;15.90;69.70;;;;;;5030970;28;20032;-45
2022/05/23 06:16:15;;;;;;;4.10;2.22;;;16.10;69.10;;;;;;5028741;28;20397;-46
2022/05/23 06:18:42;;;;;;;5.97;2.45;;;16.30;69.70;;;;;;5044793;28;20025;-45
2022/05/23 06:21:10;;;;;;;6.93;2.72;;;16.40;68.80;;;;;;5040080;28;20026;-49
2022/05/23 06:23:37;;;;;;;6.05;2.72;;;16.60;68.30;;;;;;5051167;28;20064;-44
2022/05/23 06:26:03;;;;;;;5.38;2.10;;;16.60;68.00;;;;;;5047317;28;20035;-45
2022/05/23 06:28:31;;;;;;;4.28;2.40;;;16.60;67.70;;;;;;5026697;28;20032;-45
2022/05/23 06:30:59;;;;;;;5.63;2.55;;;16.60;67.50;;;;;;5041690;28;20062;-44
2022/05/23 06:33:25;;;;;;;7.75;2.75;;;16.40;67.60;;;;;;5047654;28;20025;-44
2022/05/23 06:35:51;;;;;;;10.13;2.70;;;16.40;68.10;;;;;;5051418;28;20035;-45
2022/05/23 06:38:17;;;;;;;5.18;2.78;;;16.40;68.50;;;;;;5047968;28;20039;-45
2022/05/23 06:40:43;;;;;;;6.72;2.70;;;16.30;68.10;;;;;;5044366;28;20113;-45
2022/05/23 06:43:09;;;;;;;6.07;2.40;;;16.30;68.70;;;;;;5047785;28;20036;-45
2022/05/23 06:45:35;;;;;;;7.43;3.22;;;16.50;68.40;;;;;;5049899;28;20036;-44
2022/05/23 06:48:01;;;;;;;7.15;2.30;;;16.60;68.00;;;;;;5052131;28;20027;-45
2022/05/23 06:50:27;;;;;;;8.20;2.65;;;16.90;67.80;;;;;;5031487;28;20390;-45
2022/05/23 06:52:53;;;;;;;5.15;2.55;;;17.00;67.20;;;;;;5031857;28;20046;-47
2022/05/23 06:55:18;;;;;;;6.72;2.63;;;17.10;66.90;;;;;;5031909;28;20354;-43
2022/05/23 06:57:44;;;;;;;5.00;3.15;;;17.20;67.70;;;;;;5031796;28;20328;-45
2022/05/23 07:00:10;;;;;;;6.25;3.30;;;17.00;67.50;;;;;;5030722;28;20048;-46
2022/05/23 07:02:37;;;;;;;5.63;2.67;;;17.00;66.90;;;;;;5012247;28;20061;-45
2022/05/23 07:13:16;;;;;;;7.32;2.92;;;17.00;68.20;;;;;;5049589;28;20115;-46
2022/05/23 07:15:46;;;;;;;9.63;3.05;;;17.20;68.60;;;;;;5048321;28;20103;-45
2022/05/23 07:18:13;;;;;;;6.35;2.90;;;17.50;68.10;;;;;;5030711;28;20025;-45
2022/05/23 07:20:40;;;;;;;5.80;2.60;;;17.80;67.20;;;;;;5042249;28;20029;-45
2022/05/23 07:23:05;;;;;;;4.68;2.17;;;18.10;63.60;;;;;;5050208;28;20033;-46
2022/05/23 07:25:31;;;;;;;7.88;3.13;;;18.30;63.20;;;;;;5049421;28;20041;-44
2022/05/23 07:27:58;;;;;;;8.93;3.13;;;18.70;63.50;;;;;;5030592;28;20409;-47
2022/05/23 07:30:23;;;;;;;8.98;3.10;;;19.10;61.30;;;;;;5029644;28;20040;-46
2022/05/23 07:32:49;;;;;;;6.28;3.17;;;19.40;61.50;;;;;;5037373;28;20044;-47
2022/05/23 07:35:18;;;;;;;6.72;2.38;;;19.80;59.00;;;;;;5038848;28;20086;-47
2022/05/23 07:37:44;;;;;;;5.43;2.10;;;19.90;57.60;;;;;;5036840;28;20036;-44
2022/05/23 07:40:10;;;;;;;7.78;2.60;;;20.20;57.30;;;;;;5030205;28;20036;-47
2022/05/23 07:42:36;;;;;;;3.67;1.63;;;20.50;57.90;;;;;;5037445;28;20041;-47
2022/05/23 07:45:03;;;;;;;6.43;2.55;;;21.20;57.80;;;;;;5030016;28;20030;-45
2022/05/23 07:47:29;;;;;;;7.20;2.63;;;21.70;55.00;;;;;;5037443;28;20035;-46
2022/05/23 07:49:55;;;;;;;9.93;2.72;;;21.80;53.30;;;;;;5030153;28;20025;-44
2022/05/23 07:52:20;;;;;;;4.75;2.50;;;22.00;54.40;;;;;;5028905;28;20056;-45
2022/05/23 08:00:32;;;;;;;6.28;2.40;;;22.90;50.50;;;;;;5030373;28;20117;-45
2022/05/23 08:03:10;;;;;;;3.72;1.83;;;22.90;51.70;;;;;;5049579;28;20036;-45
2022/05/23 08:05:37;;;;;;;5.82;2.95;;;22.40;52.10;;;;;;5038445;28;20060;-45
2022/05/23 08:08:05;;;;;;;4.90;2.08;;;21.90;52.20;;;;;;5030928;28;20026;-44
2022/05/23 08:10:30;;;;;;;4.38;2.80;;;21.80;53.50;;;;;;5045722;28;20037;-46
2022/05/23 08:12:58;;;;;;;4.57;2.38;;;21.50;54.90;;;;;;5048226;28;20366;-47
2022/05/23 08:15:26;;;;;;;5.28;2.40;;;21.40;56.90;;;;;;5034089;28;20029;-44
2022/05/23 08:17:52;;;;;;;9.18;2.70;;;21.30;55.60;;;;;;5029890;28;20033;-45
2022/05/23 08:20:18;;;;;;;6.78;3.25;;;21.30;56.40;;;;;;5030212;28;20094;-44
2022/05/23 08:22:45;;;;;;;5.53;2.92;;;21.40;53.60;;;;;;5029768;28;20039;-46
2022/05/23 08:25:11;;;;;;;5.50;2.85;;;21.90;53.70;;;;;;5047321;28;20152;-45
2022/05/23 08:27:37;;;;;;;7.20;2.72;;;22.20;55.80;;;;;;5050290;28;20415;-48
2022/05/23 08:30:05;;;;;;;8.75;3.33;;;22.90;54.60;;;;;;5029316;28;20040;-44
2022/05/23 08:32:30;;;;;;;6.32;2.92;;;23.30;52.50;;;;;;5030336;28;20466;-45
2022/05/23 08:34:56;;;;;;;8.82;3.15;;;23.90;50.40;;;;;;5033735;28;20040;-45
2022/05/23 08:37:22;;;;;;;7.85;3.38;;;24.30;50.50;;;;;;5030280;28;20042;-47
2022/05/23 08:39:47;;;;;;;7.30;2.67;;;24.10;48.50;;;;;;5029855;28;20501;-45
2022/05/23 08:42:16;;;;;;;6.60;2.83;;;24.00;48.80;;;;;;5035150;28;20034;-45
2022/05/23 08:44:53;;;;;;;5.43;2.78;;;24.20;50.30;;;;;;5028133;28;20423;-47
2022/05/23 08:47:24;;;;;;;8.60;4.00;;;23.90;47.90;;;;;;5030139;28;20037;-46
2022/05/23 08:50:04;;;;;;;6.80;3.20;;;24.00;50.20;;;;;;5030766;28;20059;-47
2022/05/23 08:52:41;;;;;;;6.28;3.70;;;24.10;49.70;;;;;;5049592;28;20545;-45
2022/05/23 08:55:21;;;;;;;8.32;3.58;;;23.90;50.00;;;;;;5046615;28;20048;-48
2022/05/23 08:57:52;;;;;;;5.80;2.85;;;24.10;51.00;;;;;;5028577;28;20040;-48
2022/05/23 09:00:26;;;;;;;4.65;2.80;;;24.00;50.80;;;;;;5029547;28;20036;-44
2022/05/23 09:02:57;;;;;;;7.03;2.88;;;24.10;49.60;;;;;;5029850;28;20025;-46
2022/05/23 09:05:32;;;;;;;5.10;3.03;;;23.90;50.70;;;;;;5037103;28;20354;-45
2022/05/23 09:08:01;;;;;;;6.78;3.08;;;23.90;51.00;;;;;;5028026;28;20124;-46
2022/05/23 09:10:48;;;;;;;6.20;3.30;;;23.90;50.60;;;;;;5036927;28;20033;-45
2022/05/23 09:13:16;;;;;;;7.78;3.33;;;23.70;50.50;;;;;;5030349;28;20108;-45
2022/05/23 09:15:42;;;;;;;6.75;3.00;;;23.40;51.80;;;;;;5043316;28;20053;-46
2022/05/23 09:18:15;;;;;;;5.90;2.88;;;23.60;52.70;;;;;;5033448;28;20035;-46
2022/05/23 09:20:49;;;;;;;4.97;2.35;;;23.80;52.10;;;;;;5027485;28;20496;-45
2022/05/23 09:23:25;;;;;;;9.27;3.63;;;24.20;52.00;;;;;;5029305;28;20029;-48
2022/05/23 09:25:53;;;;;;;7.07;3.63;;;24.60;49.70;;;;;;5046183;28;20454;-45
2022/05/23 09:28:29;;;;;;;7.57;3.08;;;24.70;47.70;;;;;;5048443;28;20066;-46
2022/05/23 09:31:03;;;;;;;7.22;3.35;;;24.50;49.20;;;;;;5027859;28;20041;-48
2022/05/23 09:33:30;;;;;;;5.60;2.42;;;24.60;49.10;;;;;;5029130;28;20025;-47
2022/05/23 09:36:22;;;;;;;5.80;2.85;;;24.80;49.10;;;;;;5042732;28;20342;-47
2022/05/23 09:38:50;;;;;;;7.93;3.10;;;24.70;48.80;;;;;;5036984;28;20044;-45
2022/05/23 09:50:07;;;;;;;6.25;3.00;;;24.40;48.30;;;;;;5039519;28;20044;-47
2022/05/23 09:52:39;;;;;;;4.63;3.00;;;24.40;47.30;;;;;;5059813;28;20060;-46
2022/05/23 09:55:08;;;;;;;9.25;3.13;;;24.40;50.10;;;;;;5037075;28;20037;-48
2022/05/23 09:57:42;;;;;;;12.50;3.67;;;24.50;50.00;;;;;;5032872;28;20018;-46
2022/05/23 10:00:25;;;;;;;6.13;2.60;;;24.90;49.40;;;;;;5039173;28;20040;-45
2022/05/23 10:02:52;;;;;;;5.95;3.17;;;25.10;49.60;;;;;;5032637;28;20037;-49
2022/05/23 10:05:23;;;;;;;14.45;3.15;;;25.10;49.70;;;;;;5032781;28;20030;-45
2022/05/23 10:07:54;;;;;;;8.32;3.33;;;25.30;49.60;;;;;;5030863;28;20029;-46
2022/05/23 10:10:26;;;;;;;6.32;2.97;;;25.40;48.40;;;;;;5038428;28;20022;-47
2022/05/23 10:13:13;;;;;;;12.52;3.53;;;25.40;47.90;;;;;;5031828;28;20029;-45
2022/05/23 10:15:47;;;;;;;5.35;2.63;;;25.10;48.30;;;;;;5029609;28;20033;-45
2022/05/23 10:18:25;;;;;;;5.00;2.83;;;24.90;50.00;;;;;;5030241;28;20063;-47
2022/05/23 10:20:51;;;;;;;5.95;3.03;;;25.20;50.30;;;;;;5032766;28;20045;-48
2022/05/23 10:23:21;;;;;;;8.20;3.13;;;25.40;48.60;;;;;;5032285;28;20021;-48
2022/05/23 10:26:19;;;;;;;5.57;2.60;;;25.10;48.80;;;;;;5030863;28;20029;-46
2022/05/23 10:29:03;;;;;;;6.57;3.03;;;25.70;48.50;;;;;;5030601;28;20037;-48
2022/05/23 10:31:46;;;;;;;6.38;3.08;;;25.90;48.40;;;;;;5018111;28;20108;-47
2022/05/23 10:34:35;;;;;;;7.72;3.28;;;25.90;47.00;;;;;;5031298;28;20446;-46
2022/05/23 10:37:05;;;;;;;6.10;3.25;;;25.70;47.80;;;;;;5032164;28;20037;-46
2022/05/23 10:42:32;;;;;;;9.25;2.95;;;25.20;47.00;;;;;;5035577;28;19919;-46
2022/05/23 10:45:09;;;;;;;6.88;3.45;;;25.10;48.20;;;;;;5036139;28;20108;-46
2022/05/23 10:47:44;;;;;;;8.18;3.10;;;25.10;46.90;;;;;;5029115;28;20025;-45
2022/05/23 10:50:47;;;;;;;6.70;3.60;;;25.00;48.20;;;;;;5040578;28;20024;-45
2022/05/23 10:53:32;;;;;;;6.38;2.95;;;25.00;47.30;;;;;;5040866;28;20553;-46
2022/05/23 10:56:20;;;;;;;11.63;3.40;;;25.10;48.80;;;;;;5030573;28;20036;-47
2022/05/23 10:58:57;;;;;;;6.45;3.17;;;25.40;49.40;;;;;;5014642;28;20148;-46
2022/05/23 11:02:14;;;;;;;8.55;3.58;;;25.50;47.20;;;;;;5025841;28;20034;-46
2022/05/23 11:04:48;;;;;;;6.57;3.42;;;25.20;47.30;;;;;;5030922;28;20094;-45
2022/05/23 11:07:33;;;;;;;5.97;3.38;;;24.90;47.50;;;;;;5026442;28;20037;-47
2022/05/23 11:10:20;;;;;;;7.25;3.40;;;24.90;46.70;;;;;;5021126;28;20036;-46
2022/05/23 11:12:57;;;;;;;8.10;3.58;;;25.20;49.00;;;;;;5026016;28;20450;-46
2022/05/23 11:15:39;;;;;;;7.25;3.30;;;25.30;48.70;;;;;;5026849;28;20071;-48
2022/05/23 11:18:24;;;;;;;9.48;3.38;;;25.40;46.00;;;;;;5031021;28;20118;-47
2022/05/23 11:20:57;;;;;;;7.30;3.55;;;25.30;47.70;;;;;;5040910;28;20039;-46
2022/05/23 11:23:41;;;;;;;5.53;2.67;;;25.30;45.80;;;;;;5031361;28;20033;-48
2022/05/23 11:26:15;;;;;;;7.28;3.40;;;25.30;47.20;;;;;;5043205;28;20063;-46
2022/05/23 11:34:26;;;;;;;5.97;2.80;;;25.30;45.50;;;;;;5018165;28;20425;-46
2022/05/23 11:39:41;;;;;;;5.43;2.70;;;25.10;46.10;;;;;;5029735;28;20529;-46
2022/05/23 11:42:24;;;;;;;4.82;2.85;;;25.10;45.40;;;;;;5015696;28;20108;-46
2022/05/23 11:44:50;;;;;;;7.72;2.85;;;24.90;46.40;;;;;;5029262;28;20488;-46
2022/05/23 11:47:21;;;;;;;4.63;2.47;;;24.90;46.40;;;;;;5029501;28;20025;-47
2022/05/23 11:49:58;;;;;;;6.47;2.72;;;25.10;45.90;;;;;;5037323;28;20383;-47
2022/05/23 11:52:32;;;;;;;4.60;2.50;;;25.20;47.40;;;;;;5030539;28;20052;-47
2022/05/23 11:54:57;;;;;;;4.80;2.70;;;25.20;44.70;;;;;;5027869;28;20026;-46
2022/05/23 11:57:36;;;;;;;5.63;3.40;;;25.00;44.30;;;;;;5032976;28;20038;-51
2022/05/23 12:00:25;;;;;;;8.73;2.97;;;24.90;45.90;;;;;;5029643;28;20064;-46
2022/05/23 12:03:23;;;;;;;7.30;3.08;;;25.00;44.60;;;;;;5028957;28;20359;-49
2022/05/23 12:06:16;;;;;;;8.73;2.45;;;24.90;45.70;;;;;;5008469;28;20041;-50
2022/05/23 12:09:19;;;;;;;12.48;3.25;;;24.70;46.20;;;;;;5023092;28;20033;-47
2022/05/23 12:11:51;;;;;;;5.85;2.90;;;24.30;45.90;;;;;;5017143;28;20049;-47
2022/05/23 12:14:42;;;;;;;6.75;3.47;;;24.20;47.40;;;;;;5029114;28;20032;-46
2022/05/23 12:17:30;;;;;;;6.03;3.40;;;24.50;49.50;;;;;;5028845;28;20546;-47
2022/05/23 12:20:20;;;;;;;5.63;2.42;;;24.70;46.40;;;;;;5029180;28;20029;-48
2022/05/23 12:23:11;;;;;;;5.25;2.38;;;24.80;45.20;;;;;;5028496;28;20025;-47
2022/05/23 12:25:37;;;;;;;6.93;2.65;;;24.70;47.50;;;;;;5031352;28;20108;-47
2022/05/23 12:28:14;;;;;;;4.82;2.78;;;24.60;46.20;;;;;;5048232;28;20124;-46
2022/05/23 12:30:45;;;;;;;8.15;3.17;;;24.40;45.90;;;;;;5029761;28;20052;-47
2022/05/23 12:33:25;;;;;;;4.75;2.58;;;24.50;47.40;;;;;;5045148;28;20099;-46
2022/05/23 12:35:57;;;;;;;9.80;3.00;;;24.40;46.00;;;;;;5047723;28;20591;-46
2022/05/23 12:38:32;;;;;;;3.55;2.53;;;24.40;46.20;;;;;;5046463;28;20108;-46
2022/05/23 12:41:39;;;;;;;24.23;2.80;;;24.50;46.50;;;;;;5037357;28;20465;-46
2022/05/23 12:44:26;;;;;;;6.30;2.35;;;24.50;46.70;;;;;;5042097;28;20029;-48
2022/05/23 12:47:16;;;;;;;4.53;2.25;;;24.40;46.20;;;;;;5029569;28;20025;-47
2022/05/23 12:49:45;;;;;;;9.65;2.45;;;24.30;45.70;;;;;;5032704;28;20013;-47
2022/05/23 12:52:25;;;;;;;11.48;3.38;;;24.30;47.10;;;;;;5040630;28;20045;-46
2022/05/23 12:55:15;;;;;;;4.93;2.75;;;24.20;46.10;;;;;;5046070;28;20039;-46
2022/05/23 12:58:35;;;;;;;6.80;2.35;;;24.30;46.20;;;;;;5030055;28;20037;-47
2022/05/23 13:01:08;;;;;;;4.78;2.40;;;24.20;46.90;;;;;;5023816;28;20041;-46
2022/05/23 13:03:51;;;;;;;7.75;2.70;;;24.20;46.10;;;;;;5007469;28;20042;-46
2022/05/23 13:06:39;;;;;;;7.32;2.97;;;24.10;46.20;;;;;;5027155;28;20092;-46
2022/05/23 13:09:17;;;;;;;7.80;2.55;;;24.20;45.90;;;;;;5007826;28;20449;-46
2022/05/23 13:11:48;;;;;;;9.32;2.70;;;24.20;46.30;;;;;;5022770;28;20037;-48
2022/05/23 13:14:14;;;;;;;5.18;2.65;;;24.20;46.70;;;;;;5026737;28;20111;-46
2022/05/23 13:16:50;;;;;;;5.45;2.13;;;24.30;46.20;;;;;;5026213;28;20092;-46
2022/05/23 13:22:10;;;;;;;8.27;2.60;;;24.30;46.20;;;;;;5026122;28;20359;-46
2022/05/23 13:24:59;;;;;;;8.63;2.28;;;24.30;47.20;;;;;;5018872;28;20033;-45
2022/05/23 13:27:33;;;;;;;6.88;2.22;;;24.40;46.10;;;;;;5015842;28;20356;-46
2022/05/23 13:30:19;;;;;;;6.43;2.45;;;24.30;44.20;;;;;;5023890;28;20029;-46
2022/05/23 13:32:58;;;;;;;7.97;2.35;;;24.40;46.30;;;;;;5022992;28;20116;-49
2022/05/23 13:35:25;;;;;;;6.40;2.60;;;24.40;47.00;;;;;;5039040;28;20045;-46
2022/05/23 13:37:50;;;;;;;4.00;1.70;;;24.30;45.20;;;;;;5048672;28;20039;-46
2022/05/23 13:40:26;;;;;;;7.55;2.92;;;24.10;47.30;;;;;;5041457;28;20115;-46
2022/05/23 13:43:10;;;;;;;5.05;2.65;;;24.30;46.50;;;;;;5029291;28;20466;-46
2022/05/23 13:45:35;;;;;;;6.55;2.30;;;24.20;45.90;;;;;;5040036;28;20080;-46
2022/05/23 13:48:23;;;;;;;4.22;2.05;;;24.00;46.90;;;;;;5048642;28;20048;-46
2022/05/23 13:50:58;;;;;;;8.63;2.60;;;23.90;47.20;;;;;;5027533;28;20040;-46
2022/05/23 13:54:01;;;;;;;5.00;2.78;;;24.00;47.40;;;;;;5028569;28;20091;-46
2022/05/23 13:56:27;;;;;;;7.10;2.83;;;24.10;47.60;;;;;;5032937;28;20472;-46
2022/05/23 13:58:57;;;;;;;4.80;2.08;;;24.20;46.30;;;;;;5039831;28;20021;-46
2022/05/23 14:01:31;;;;;;;7.20;3.35;;;24.20;46.30;;;;;;5031833;28;20103;-47
2022/05/23 14:04:05;;;;;;;5.20;1.83;;;24.20;47.50;;;;;;5045619;28;20360;-48
2022/05/23 14:06:40;;;;;;;6.18;2.35;;;24.30;47.60;;;;;;5049095;28;20036;-46
2022/05/23 14:09:07;;;;;;;5.35;2.20;;;24.20;47.30;;;;;;5044978;28;20067;-47
2022/05/23 14:11:37;;;;;;;14.50;2.83;;;24.20;46.80;;;;;;5041706;28;20036;-47